Time;durP1;ratioP1;P1;durP2;ratioP2;P2;SDS_P1;SDS_P2;PMS_P1;PMS_P2;Temp;Humidity;BMP_temperature;BMP_pressure;BME280_temperature;BME280_humidity;BME280_pressure;Samples;Min_cycle;Max_cycle;Signal;HPM_P1;HPM_P2
2022/05/20 00:00:29;;;;;;;49.30;39.65;;;;;;;12.25;100.00;102072.97;5074225;28;20463;-60
2022/05/20 00:02:54;;;;;;;49.35;40.05;;;;;;;12.39;100.00;102088.94;5073393;28;20039;-60
2022/05/20 00:05:20;;;;;;;48.47;40.35;;;;;;;12.29;100.00;102073.22;5073681;28;20389;-61
2022/05/20 00:07:45;;;;;;;50.88;40.80;;;;;;;12.22;100.00;102069.94;5057237;28;20052;-61
2022/05/20 00:10:17;;;;;;;51.63;41.75;;;;;;;12.20;100.00;102072.97;5057232;28;20035;-61
2022/05/20 00:12:43;;;;;;;50.70;39.83;;;;;;;12.29;100.00;102093.44;5074701;28;20086;-61
2022/05/20 00:15:11;;;;;;;48.33;39.50;;;;;;;12.30;100.00;102099.84;5074221;28;20032;-60
2022/05/20 00:17:37;;;;;;;49.55;40.70;;;;;;;12.26;100.00;102094.03;5074601;28;20033;-59
2022/05/20 00:20:05;;;;;;;50.63;39.35;;;;;;;12.24;100.00;102098.19;5074270;28;20472;-60
2022/05/20 00:22:30;;;;;;;49.60;39.83;;;;;;;12.24;100.00;102098.19;5074168;28;20032;-60
2022/05/20 00:27:39;;;;;;;48.33;40.83;;;;;;;12.13;100.00;102087.19;5074383;28;20094;-60
2022/05/20 00:30:05;;;;;;;49.53;40.75;;;;;;;12.10;100.00;102098.00;5074024;28;20024;-59
2022/05/20 00:32:31;;;;;;;47.78;39.55;;;;;;;12.09;100.00;102096.38;5074015;28;20439;-60
2022/05/20 00:34:56;;;;;;;46.92;39.25;;;;;;;12.07;100.00;102093.03;5074367;28;20059;-60
2022/05/20 00:37:21;;;;;;;49.65;39.85;;;;;;;11.98;100.00;102088.09;5073794;28;20064;-60
2022/05/20 00:39:46;;;;;;;45.53;39.10;;;;;;;12.04;100.00;102100.00;5073900;28;20024;-60
2022/05/20 00:42:14;;;;;;;47.65;39.25;;;;;;;12.00;100.00;102091.41;5074267;28;20470;-61
2022/05/20 00:44:43;;;;;;;46.78;37.78;;;;;;;11.94;100.00;102092.50;5074616;28;20399;-61
2022/05/20 00:47:12;;;;;;;81.25;39.60;;;;;;;11.86;100.00;102077.28;5072770;28;20041;-61
2022/05/20 00:49:39;;;;;;;69.28;37.70;;;;;;;11.92;100.00;102094.75;5072772;28;20024;-61
2022/05/20 00:52:08;;;;;;;74.00;38.92;;;;;;;11.96;100.00;102106.94;5072310;28;20037;-60
2022/05/20 00:54:39;;;;;;;84.93;38.40;;;;;;;11.88;100.00;102078.94;5056560;28;20063;-61
2022/05/20 00:57:13;;;;;;;137.40;42.40;;;;;;;11.89;100.00;102083.38;5072736;28;20029;-59
2022/05/20 00:59:42;;;;;;;112.95;39.75;;;;;;;11.86;100.00;102088.38;5056857;28;20068;-59
2022/05/20 01:02:15;;;;;;;91.03;38.80;;;;;;;11.83;100.00;102080.66;5073641;28;20127;-60
2022/05/20 01:04:41;;;;;;;68.55;40.65;;;;;;;11.84;100.00;102098.09;5073786;28;20028;-60
2022/05/20 01:07:07;;;;;;;58.45;39.00;;;;;;;11.71;100.00;102086.50;5074509;28;20021;-60
2022/05/20 01:09:36;;;;;;;52.88;38.15;;;;;;;11.48;100.00;102065.81;5074700;28;20032;-60
2022/05/20 01:12:02;;;;;;;64.05;37.60;;;;;;;11.58;100.00;102067.72;5074005;28;20024;-60
2022/05/20 01:14:27;;;;;;;49.00;35.65;;;;;;;11.59;100.00;102069.38;5074408;28;20097;-61
2022/05/20 01:16:53;;;;;;;54.08;36.75;;;;;;;11.59;100.00;102076.84;5074273;28;20552;-61
2022/05/20 01:19:35;;;;;;;50.65;37.20;;;;;;;11.58;100.00;102080.72;5073998;28;20025;-60
2022/05/20 01:22:00;;;;;;;43.47;34.58;;;;;;;11.50;100.00;102079.41;5074383;28;20031;-61
2022/05/20 01:24:26;;;;;;;52.42;35.53;;;;;;;11.51;100.00;102079.09;5074265;28;20033;-60
2022/05/20 01:26:51;;;;;;;54.63;36.05;;;;;;;11.45;100.00;102084.94;5074329;28;20041;-60
2022/05/20 01:29:16;;;;;;;54.50;35.10;;;;;;;11.46;100.00;102087.44;5074054;28;20507;-60
2022/05/20 01:31:42;;;;;;;69.03;37.92;;;;;;;11.38;100.00;102077.75;5073989;28;20026;-60
2022/05/20 01:34:08;;;;;;;73.10;36.58;;;;;;;11.44;100.00;102080.50;5073626;28;20029;-60
2022/05/20 01:36:33;;;;;;;56.90;38.33;;;;;;;11.34;100.00;102065.56;5072333;28;20487;-61
2022/05/20 01:38:59;;;;;;;65.45;36.95;;;;;;;11.29;100.00;102062.00;5071961;28;20032;-61
2022/05/20 01:41:45;;;;;;;60.60;35.72;;;;;;;11.49;100.00;102078.56;5072057;28;20037;-61
2022/05/20 01:44:21;;;;;;;64.00;36.22;;;;;;;11.41;100.00;102070.81;5072574;28;20025;-60
2022/05/20 01:47:21;;;;;;;79.78;38.75;;;;;;;11.49;100.00;102067.47;5072271;28;20025;-61
2022/05/20 01:49:55;;;;;;;92.25;37.55;;;;;;;11.50;100.00;102073.84;5072403;28;20040;-61
2022/05/20 01:52:29;;;;;;;72.20;33.70;;;;;;;11.43;100.00;102056.72;5071860;28;20067;-61
2022/05/20 01:55:10;;;;;;;79.85;33.63;;;;;;;11.45;100.00;102057.22;5071814;28;20044;-61
2022/05/20 01:57:49;;;;;;;96.05;35.50;;;;;;;11.43;100.00;102051.16;5071840;28;20119;-60
2022/05/20 02:00:28;;;;;;;68.63;35.08;;;;;;;11.28;100.00;102030.69;5071515;28;20064;-60
2022/05/20 02:03:22;;;;;;;66.25;34.30;;;;;;;11.45;100.00;102052.53;5072073;28;20024;-61
2022/05/20 02:05:54;;;;;;;64.75;33.95;;;;;;;11.45;100.00;102048.91;5073013;28;20032;-61
2022/05/20 02:08:25;;;;;;;59.95;34.70;;;;;;;11.34;100.00;102048.94;5071529;28;20040;-61
2022/05/20 02:10:59;;;;;;;82.95;38.60;;;;;;;11.36;100.00;102046.72;5054761;28;20032;-61
2022/05/20 02:13:30;;;;;;;112.72;40.05;;;;;;;11.21;100.00;102019.09;5071299;28;20131;-62
2022/05/20 02:16:01;;;;;;;114.53;39.60;;;;;;;11.21;100.00;102033.75;5070878;28;20072;-61
2022/05/20 02:18:45;;;;;;;111.90;39.42;;;;;;;11.33;100.00;102040.94;5071129;28;20043;-62
2022/05/20 02:21:16;;;;;;;112.38;38.08;;;;;;;11.30;100.00;102036.78;5071368;28;20453;-61
2022/05/20 02:23:46;;;;;;;91.88;37.08;;;;;;;11.23;100.00;102025.19;5070548;28;20420;-62
2022/05/20 02:26:15;;;;;;;106.72;40.35;;;;;;;11.17;100.00;102020.75;5054504;28;20059;-62
2022/05/20 02:28:44;;;;;;;83.28;37.40;;;;;;;11.29;100.00;102029.59;5070154;28;20071;-62
2022/05/20 02:31:15;;;;;;;56.05;36.72;;;;;;;11.24;100.00;102024.06;5070708;28;20071;-62
2022/05/20 02:33:40;;;;;;;78.47;36.65;;;;;;;11.26;100.00;102029.31;5070514;28;20032;-61
2022/05/20 02:36:15;;;;;;;74.60;36.38;;;;;;;11.17;100.00;102024.38;5069830;28;20039;-61
2022/05/20 02:38:41;;;;;;;80.05;36.35;;;;;;;11.19;100.00;102027.66;5070715;28;20024;-62
2022/05/20 02:41:08;;;;;;;93.70;39.40;;;;;;;11.10;100.00;102015.50;5070651;28;20039;-61
2022/05/20 02:43:33;;;;;;;92.45;36.85;;;;;;;11.13;100.00;102039.88;5070248;28;20115;-61
2022/05/20 02:45:59;;;;;;;111.25;39.47;;;;;;;10.99;100.00;102023.00;5070904;28;20071;-61
2022/05/20 02:48:24;;;;;;;69.88;36.00;;;;;;;10.97;100.00;102029.94;5070575;28;20039;-61
2022/05/20 02:50:49;;;;;;;108.07;39.28;;;;;;;11.03;100.00;102034.34;5072253;28;20032;-60
2022/05/20 02:53:15;;;;;;;107.85;40.63;;;;;;;11.03;100.00;102039.88;5072129;28;20035;-60
2022/05/20 02:55:40;;;;;;;78.35;37.25;;;;;;;11.08;100.00;102039.91;5072089;28;20447;-60
2022/05/20 02:58:05;;;;;;;66.03;38.05;;;;;;;11.13;100.00;102044.59;5072102;28;20115;-60
2022/05/20 03:05:59;;;;;;;109.43;38.20;;;;;;;11.15;100.00;102043.19;5071699;28;20073;-61
2022/05/20 03:08:25;;;;;;;105.15;37.03;;;;;;;11.13;100.00;102041.81;5071668;28;20040;-60
2022/05/20 03:10:51;;;;;;;76.93;39.03;;;;;;;11.18;100.00;102037.09;5071440;28;20032;-60
2022/05/20 03:13:17;;;;;;;89.90;42.13;;;;;;;11.19;100.00;102030.44;5070234;28;20056;-60
2022/05/20 03:15:43;;;;;;;96.35;39.60;;;;;;;11.08;100.00;102015.78;5070011;28;20032;-61
2022/05/20 03:18:10;;;;;;;99.53;40.15;;;;;;;11.03;100.00;102010.28;5069940;28;20364;-61
2022/05/20 03:20:38;;;;;;;79.65;37.47;;;;;;;11.27;100.00;102034.56;5069777;28;20017;-60
2022/05/20 03:23:04;;;;;;;100.05;39.55;;;;;;;11.17;100.00;102029.06;5071462;28;20021;-61
2022/05/20 03:25:30;;;;;;;110.80;40.78;;;;;;;11.17;100.00;102012.44;5071094;28;20016;-61
2022/05/20 03:27:55;;;;;;;133.68;40.38;;;;;;;11.17;100.00;102026.28;5076072;28;20044;-60
2022/05/20 03:30:21;;;;;;;108.95;38.28;;;;;;;11.17;100.00;102023.53;5076591;28;20406;-60
2022/05/20 03:32:46;;;;;;;119.20;39.78;;;;;;;11.14;100.00;102019.38;5076588;28;20048;-60
2022/05/20 03:35:12;;;;;;;116.15;40.67;;;;;;;11.06;100.00;102003.34;5076660;28;20524;-60
2022/05/20 03:37:37;;;;;;;89.07;37.72;;;;;;;11.04;100.00;102000.88;5078452;28;20028;-60
2022/05/20 03:40:04;;;;;;;108.25;39.67;;;;;;;11.16;100.00;102025.47;5078540;28;20038;-60
2022/05/20 03:42:29;;;;;;;110.00;40.20;;;;;;;11.07;100.00;102008.59;5076446;28;20021;-61
2022/05/20 03:44:54;;;;;;;108.97;37.63;;;;;;;11.07;100.00;102007.78;5077343;28;20328;-60
2022/05/20 03:47:20;;;;;;;125.60;40.58;;;;;;;11.13;100.00;102020.50;5077013;28;20131;-60
2022/05/20 03:49:46;;;;;;;122.63;41.55;;;;;;;11.21;100.00;102027.41;5077362;28;20028;-61
2022/05/20 03:52:13;;;;;;;112.45;41.63;;;;;;;11.16;100.00;102033.78;5077087;28;20089;-59
2022/05/20 03:54:39;;;;;;;123.18;44.50;;;;;;;11.16;100.00;102028.25;5060831;28;20557;-62
2022/05/20 03:57:05;;;;;;;131.43;42.78;;;;;;;11.13;100.00;102014.13;5077509;28;20038;-60
2022/05/20 03:59:36;;;;;;;110.22;41.92;;;;;;;11.23;100.00;102028.78;5060460;28;20021;-61
2022/05/20 04:02:06;;;;;;;101.10;42.45;;;;;;;11.15;100.00;102017.44;5077274;28;20025;-60
2022/05/20 04:04:34;;;;;;;78.28;38.20;;;;;;;11.08;100.00;102010.25;5077424;28;20032;-61
2022/05/20 04:07:02;;;;;;;95.85;38.95;;;;;;;11.07;100.00;102027.97;5077662;28;20114;-61
2022/05/20 04:09:28;;;;;;;88.50;37.70;;;;;;;11.01;100.00;102020.81;5077599;28;20031;-61
2022/05/20 04:11:59;;;;;;;74.47;37.47;;;;;;;10.95;100.00;101999.78;5078542;28;20024;-61
2022/05/20 04:14:28;;;;;;;66.25;38.15;;;;;;;10.98;100.00;101998.38;5077661;28;20147;-60
2022/05/20 04:17:00;;;;;;;83.03;39.78;;;;;;;11.07;100.00;101999.47;5077003;28;20035;-60
2022/05/20 04:19:28;;;;;;;67.80;38.95;;;;;;;10.99;100.00;101966.81;5078615;28;20119;-61
2022/05/20 04:21:57;;;;;;;69.10;38.90;;;;;;;11.15;100.00;101998.03;5076674;28;20029;-60
2022/05/20 04:24:22;;;;;;;68.43;38.90;;;;;;;11.13;100.00;101990.03;5077443;28;20117;-60
2022/05/20 04:26:48;;;;;;;58.08;37.55;;;;;;;11.22;100.00;101988.31;5077087;28;20028;-60
2022/05/20 04:29:14;;;;;;;54.92;38.63;;;;;;;11.18;100.00;101976.19;5077087;28;20048;-61
2022/05/20 04:31:43;;;;;;;53.08;38.25;;;;;;;11.06;100.00;101959.03;5076698;28;20020;-60
2022/05/20 04:34:09;;;;;;;49.08;38.15;;;;;;;11.03;100.00;101956.81;5076680;28;20016;-60
2022/05/20 04:36:34;;;;;;;66.93;38.25;;;;;;;11.07;100.00;101974.53;5076346;28;20590;-60
2022/05/20 04:38:59;;;;;;;51.15;38.33;;;;;;;11.28;100.00;101991.91;5072918;28;20024;-60
2022/05/20 04:46:58;;;;;;;;;;;;;;;11.49;100.00;101994.59;5075125;28;20632;-62
2022/05/20 04:49:25;;;;;;;46.58;37.65;;;;;;;11.32;100.00;101986.63;5073017;28;20393;-61
2022/05/20 04:51:51;;;;;;;56.45;38.13;;;;;;;11.32;100.00;101964.47;5072992;28;20475;-61
2022/05/20 04:57:00;;;;;;;48.50;37.28;;;;;;;11.47;100.00;101974.66;5074702;28;20189;-61
2022/05/20 04:59:25;;;;;;;47.00;37.13;;;;;;;11.66;100.00;102000.59;5073029;28;20539;-61
2022/05/20 05:01:52;;;;;;;47.78;38.67;;;;;;;11.80;100.00;102011.09;5073153;28;20467;-59
2022/05/20 05:04:18;;;;;;;46.50;37.70;;;;;;;11.83;100.00;102011.34;5074419;28;20495;-61
2022/05/20 05:06:44;;;;;;;46.88;37.97;;;;;;;11.89;100.00;102016.84;5073501;28;20113;-60
2022/05/20 05:09:10;;;;;;;43.47;36.15;;;;;;;11.95;100.00;102021.25;5072521;28;20024;-61
2022/05/20 05:11:39;;;;;;;46.28;37.28;;;;;;;12.04;100.00;102015.94;5073043;28;20036;-61
2022/05/20 05:14:07;;;;;;;44.60;36.65;;;;;;;12.08;100.00;102014.28;5072930;28;20490;-61
2022/05/20 05:16:33;;;;;;;47.22;37.65;;;;;;;12.17;100.00;102002.25;5073217;28;20135;-60
2022/05/20 05:18:59;;;;;;;46.38;37.90;;;;;;;12.31;100.00;102012.72;5074383;28;20043;-61
2022/05/20 05:21:24;;;;;;;43.58;36.17;;;;;;;12.43;100.00;102010.38;5072928;28;20443;-61
2022/05/20 05:23:49;;;;;;;44.72;35.60;;;;;;;12.55;100.00;102012.78;5073028;28;20078;-61
2022/05/20 05:26:15;;;;;;;47.70;37.92;;;;;;;12.72;100.00;102017.09;5072604;28;20089;-61
2022/05/20 05:28:40;;;;;;;46.28;39.60;;;;;;;12.84;100.00;102005.56;5072185;28;20052;-61
2022/05/20 05:31:05;;;;;;;46.35;38.53;;;;;;;12.85;100.00;102007.22;5073444;28;20102;-62
2022/05/20 05:33:31;;;;;;;46.33;38.35;;;;;;;12.97;100.00;102013.22;5072386;28;20033;-62
2022/05/20 05:35:56;;;;;;;47.20;40.28;;;;;;;12.97;100.00;101996.56;5072887;28;20063;-61
2022/05/20 05:38:22;;;;;;;45.15;37.10;;;;;;;13.16;100.00;102009.69;5072180;28;20032;-61
2022/05/20 05:40:47;;;;;;;45.55;37.33;;;;;;;13.28;100.00;102001.75;5072281;28;20028;-60
2022/05/20 05:43:12;;;;;;;44.13;36.80;;;;;;;13.22;100.00;101976.00;5071981;28;20021;-61
2022/05/20 05:45:38;;;;;;;46.17;37.55;;;;;;;13.26;100.00;101970.66;5054597;28;20060;-60
2022/05/20 05:48:06;;;;;;;47.08;36.60;;;;;;;13.36;100.00;101962.22;5072177;28;20031;-60
2022/05/20 05:50:33;;;;;;;41.80;35.17;;;;;;;13.53;100.00;101988.69;5071136;28;20543;-60
2022/05/20 05:53:11;;;;;;;40.90;33.72;;;;;;;13.62;100.00;101981.34;5071707;28;20039;-60
2022/05/20 05:55:38;;;;;;;41.63;33.17;;;;;;;13.64;100.00;101969.91;5071487;28;20048;-60
2022/05/20 05:58:03;;;;;;;43.85;35.50;;;;;;;13.82;100.00;101976.63;5055029;28;20058;-60
2022/05/20 06:00:29;;;;;;;44.33;35.83;;;;;;;13.72;100.00;101969.25;5071711;28;20645;-60
2022/05/20 06:02:54;;;;;;;44.65;34.95;;;;;;;13.73;100.00;101968.13;5071224;28;20074;-61
2022/05/20 06:05:20;;;;;;;44.42;36.72;;;;;;;13.70;100.00;101938.13;5071145;28;20025;-59
2022/05/20 06:07:46;;;;;;;44.38;35.72;;;;;;;13.85;100.00;101953.75;5071017;28;20157;-60
2022/05/20 06:10:11;;;;;;;41.83;34.53;;;;;;;14.03;100.00;101960.44;5070697;28;20115;-60
2022/05/20 06:12:37;;;;;;;42.33;33.10;;;;;;;14.18;100.00;101962.16;5073430;28;20031;-60
2022/05/20 06:15:08;;;;;;;42.95;31.80;;;;;;;14.04;98.80;101945.41;5071767;28;20035;-59
2022/05/20 06:17:34;;;;;;;38.17;30.20;;;;;;;14.23;98.27;101964.84;5071864;28;20028;-60
2022/05/20 06:19:59;;;;;;;36.05;30.27;;;;;;;14.24;98.25;101949.78;5071136;28;20027;-61
2022/05/20 06:22:26;;;;;;;37.42;28.73;;;;;;;14.31;95.61;101960.53;5071917;28;20066;-61
2022/05/20 06:24:51;;;;;;;39.00;31.10;;;;;;;14.31;96.02;101950.22;5071150;28;20090;-62
2022/05/20 06:27:16;;;;;;;38.55;32.08;;;;;;;14.32;95.04;101960.22;5070219;28;20448;-60
2022/05/20 06:29:42;;;;;;;34.50;26.08;;;;;;;14.34;94.17;101952.41;5071202;28;20472;-61
2022/05/20 06:32:07;;;;;;;33.60;26.35;;;;;;;14.56;94.31;101958.44;5071403;28;20048;-60
2022/05/20 06:39:49;;;;;;;31.65;25.20;;;;;;;14.61;91.22;101956.38;5071060;28;20024;-60
2022/05/20 06:40:09;;;;;;;32.03;23.90;;;;;;;14.78;89.39;101953.03;5071705;28;20537;-61
2022/05/20 06:42:34;;;;;;;31.67;23.20;;;;;;;14.88;89.61;101945.63;5072255;28;20040;-60
2022/05/20 06:45:00;;;;;;;31.25;23.55;;;;;;;14.96;88.86;101947.69;5071493;28;20025;-60
2022/05/20 06:47:27;;;;;;;30.05;22.58;;;;;;;15.01;86.56;101949.53;5069936;28;20043;-61
2022/05/20 06:49:52;;;;;;;29.52;21.13;;;;;;;15.05;84.95;101929.09;5071628;28;20522;-61
2022/05/20 06:52:17;;;;;;;30.63;22.23;;;;;;;15.13;84.95;101930.34;5071765;28;20028;-61
2022/05/20 06:54:42;;;;;;;30.42;21.92;;;;;;;15.22;84.56;101933.22;5071530;28;20033;-61
2022/05/20 06:57:08;;;;;;;28.92;22.00;;;;;;;15.33;84.58;101933.84;5071549;28;20024;-61
2022/05/20 06:59:33;;;;;;;30.15;21.20;;;;;;;15.23;82.51;101937.66;5071251;28;20037;-61
2022/05/20 07:02:00;;;;;;;28.95;21.60;;;;;;;15.23;82.96;101948.81;5068484;28;20364;-61
2022/05/20 07:04:29;;;;;;;28.40;22.30;;;;;;;15.24;81.47;101939.31;5068835;28;20424;-61
2022/05/20 07:06:58;;;;;;;27.45;21.23;;;;;;;15.31;81.83;101936.09;5071550;28;20036;-61
2022/05/20 07:09:23;;;;;;;27.95;21.40;;;;;;;15.36;82.00;101936.81;5071145;28;20169;-62
2022/05/20 07:11:48;;;;;;;29.13;21.58;;;;;;;15.47;81.38;101933.81;5070961;28;20025;-61
2022/05/20 07:14:14;;;;;;;28.30;21.30;;;;;;;15.53;80.83;101910.25;5070944;28;20068;-62
2022/05/20 07:16:40;;;;;;;26.02;19.83;;;;;;;15.66;78.12;101916.91;5070952;28;20029;-59
2022/05/20 07:19:05;;;;;;;26.80;19.50;;;;;;;15.79;78.91;101912.41;5069892;28;20028;-60
2022/05/20 07:21:31;;;;;;;23.98;17.95;;;;;;;15.90;76.41;101908.28;5070693;28;20051;-60
2022/05/20 07:23:56;;;;;;;26.05;18.23;;;;;;;16.00;74.36;101904.44;5071061;28;20032;-60
2022/05/20 07:26:21;;;;;;;25.33;18.30;;;;;;;16.20;76.98;101901.09;5070774;28;20021;-60
2022/05/20 07:28:47;;;;;;;26.58;18.77;;;;;;;16.45;74.74;101895.16;5070623;28;20058;-60
2022/05/20 07:31:13;;;;;;;24.10;17.65;;;;;;;16.55;73.14;101889.28;5070990;28;20411;-62
2022/05/20 07:33:38;;;;;;;25.33;18.45;;;;;;;16.80;72.26;101895.31;5070917;28;20028;-61
2022/05/20 07:36:06;;;;;;;27.25;18.50;;;;;;;16.83;72.09;101877.88;5070884;28;20513;-60
2022/05/20 07:38:32;;;;;;;24.90;17.70;;;;;;;16.80;71.54;101884.94;5070782;28;20040;-60
2022/05/20 07:40:58;;;;;;;25.17;17.98;;;;;;;16.83;72.11;101881.53;5070876;28;20035;-60
2022/05/20 07:43:24;;;;;;;26.08;17.80;;;;;;;16.98;71.55;101883.06;5070759;28;20499;-60
2022/05/20 07:45:51;;;;;;;26.30;19.55;;;;;;;16.98;71.18;101883.06;5070648;28;20422;-60
2022/05/20 07:48:17;;;;;;;25.63;19.17;;;;;;;17.04;72.81;101872.56;5070408;28;20044;-61
2022/05/20 07:50:45;;;;;;;26.38;18.20;;;;;;;17.13;71.94;101880.94;5070632;28;20313;-61
2022/05/20 07:53:20;;;;;;;29.05;20.10;;;;;;;17.27;72.88;101873.25;5069080;28;20029;-61
2022/05/20 07:55:50;;;;;;;26.98;21.08;;;;;;;17.37;70.89;101866.50;5070676;28;20032;-61
2022/05/20 07:58:18;;;;;;;26.45;20.33;;;;;;;17.55;72.16;101855.31;5070857;28;20028;-62
2022/05/20 08:00:45;;;;;;;26.27;20.75;;;;;;;17.74;71.82;101858.59;5070364;28;20058;-61
2022/05/20 08:04:52;;;;;;;25.77;18.40;;;;;;;17.96;70.25;101855.94;5068018;28;20028;-62
2022/05/20 08:05:58;;;;;;;25.90;18.25;;;;;;;18.19;70.92;101860.22;5069903;28;20040;-62
2022/05/20 08:08:23;;;;;;;25.90;19.10;;;;;;;18.34;70.45;101856.03;5069810;28;20029;-61
2022/05/20 08:10:49;;;;;;;24.70;18.50;;;;;;;18.30;65.32;101852.25;5069782;28;20047;-61
2022/05/20 08:13:14;;;;;;;25.60;19.65;;;;;;;18.18;65.34;101844.56;5072524;28;20754;-61
2022/05/20 08:15:39;;;;;;;26.20;18.67;;;;;;;18.38;67.96;101837.41;5073767;28;20039;-62
2022/05/20 08:18:05;;;;;;;24.92;17.65;;;;;;;18.50;65.65;101835.88;5073660;28;20033;-60
2022/05/20 08:20:31;;;;;;;25.67;17.80;;;;;;;18.65;64.84;101826.91;5073736;28;20029;-60
2022/05/20 08:22:57;;;;;;;26.35;17.98;;;;;;;18.85;66.40;101830.91;5072519;28;20404;-60
2022/05/20 08:25:24;;;;;;;25.80;18.13;;;;;;;18.96;64.25;101839.78;5073638;28;20024;-60
2022/05/20 08:27:50;;;;;;;25.83;17.60;;;;;;;18.97;62.79;101835.81;5073232;28;20060;-60
2022/05/20 08:30:23;;;;;;;26.23;17.80;;;;;;;18.99;64.04;101824.25;5073107;28;20031;-60
2022/05/20 08:32:48;;;;;;;24.60;17.73;;;;;;;19.02;63.18;101832.81;5073262;28;20032;-60
2022/05/20 08:35:14;;;;;;;24.92;17.40;;;;;;;18.97;63.01;101826.59;5073449;28;20039;-60
2022/05/20 08:37:41;;;;;;;24.95;17.63;;;;;;;18.82;62.23;101820.38;5071406;28;20035;-62
2022/05/20 08:40:16;;;;;;;25.02;17.90;;;;;;;18.78;62.82;101811.00;5072925;28;20059;-61
2022/05/20 08:42:41;;;;;;;28.13;17.77;;;;;;;18.94;63.59;101816.03;5073279;28;20033;-58
2022/05/20 08:45:08;;;;;;;24.88;17.75;;;;;;;18.97;62.28;101816.19;5073012;28;20033;-61
2022/05/20 08:47:39;;;;;;;25.85;18.42;;;;;;;18.85;63.25;101814.09;5073358;28;20115;-59
2022/05/20 08:50:12;;;;;;;24.42;17.58;;;;;;;18.71;63.13;101797.53;5072928;28;20087;-60
2022/05/20 08:52:38;;;;;;;24.60;18.65;;;;;;;18.78;65.87;101785.78;5073032;28;20760;-59
2022/05/20 08:55:03;;;;;;;25.13;17.35;;;;;;;18.78;63.70;101768.97;5073164;28;20041;-59
2022/05/20 08:57:33;;;;;;;24.00;18.35;;;;;;;18.83;65.40;101762.34;5072609;28;20025;-60
2022/05/20 09:00:00;;;;;;;26.10;19.13;;;;;;;19.05;63.84;101752.78;5072856;28;20412;-60
2022/05/20 09:02:25;;;;;;;25.08;18.30;;;;;;;19.26;63.33;101760.38;5074258;28;20040;-60
2022/05/20 09:04:51;;;;;;;22.13;16.85;;;;;;;19.46;61.63;101742.66;5074348;28;20024;-59
2022/05/20 09:07:19;;;;;;;24.60;16.45;;;;;;;19.64;61.95;101740.50;5074618;28;20024;-61
2022/05/20 09:09:48;;;;;;;22.83;16.95;;;;;;;19.76;61.43;101748.13;5074480;28;20114;-61
2022/05/20 09:12:36;;;;;;;24.75;17.40;;;;;;;19.83;62.68;101746.75;5074824;28;20047;-62
2022/05/20 09:18:17;;;;;;;24.15;15.55;;;;;;;19.88;60.62;101746.56;5074378;28;20051;-59
2022/05/20 09:20:49;;;;;;;22.55;15.10;;;;;;;19.94;59.91;101739.53;5073898;28;20028;-60
2022/05/20 09:23:20;;;;;;;22.52;15.13;;;;;;;19.98;58.04;101740.50;5073649;28;20029;-60
2022/05/20 09:26:01;;;;;;;23.25;14.60;;;;;;;20.00;58.29;101738.16;5074450;28;20464;-60
2022/05/20 09:28:35;;;;;;;22.45;15.35;;;;;;;19.98;58.44;101723.63;5074225;28;20075;-60
2022/05/20 09:31:30;;;;;;;22.48;14.80;;;;;;;20.07;58.82;101729.16;5074761;28;20032;-59
2022/05/20 09:34:15;;;;;;;22.33;14.10;;;;;;;20.41;59.64;101718.59;5073361;28;20048;-60
2022/05/20 09:36:57;;;;;;;22.58;14.30;;;;;;;20.71;60.61;101701.47;5073951;28;20044;-60
2022/05/20 09:39:30;;;;;;;22.85;14.13;;;;;;;20.71;56.61;101681.78;5073884;28;20032;-60
2022/05/20 09:41:58;;;;;;;23.00;13.70;;;;;;;20.90;56.85;101675.53;5073919;28;20024;-60
2022/05/20 09:44:31;;;;;;;21.48;14.05;;;;;;;20.86;55.54;101671.81;5074072;28;20115;-59
2022/05/20 09:47:10;;;;;;;20.30;13.50;;;;;;;20.80;56.88;101673.22;5074106;28;20090;-60
2022/05/20 09:49:52;;;;;;;22.80;14.13;;;;;;;20.89;56.76;101679.50;5073720;28;20032;-59
2022/05/20 09:52:32;;;;;;;20.73;13.88;;;;;;;20.88;56.04;101673.06;5072428;28;20021;-60
2022/05/20 09:55:04;;;;;;;21.13;14.38;;;;;;;20.73;56.01;101663.41;5073781;28;20025;-61
2022/05/20 09:57:40;;;;;;;22.17;14.05;;;;;;;20.51;56.30;101664.72;5073683;28;20020;-60
2022/05/20 10:00:13;;;;;;;20.15;13.65;;;;;;;20.50;56.68;101643.41;5072735;28;20075;-60
2022/05/20 10:02:51;;;;;;;21.48;14.82;;;;;;;20.67;58.26;101635.84;5073796;28;20043;-60
2022/05/20 10:05:32;;;;;;;22.25;14.77;;;;;;;20.98;57.99;101628.75;5073668;28;20476;-60
2022/05/20 10:08:25;;;;;;;21.35;14.45;;;;;;;21.30;56.98;101618.38;5073263;28;20028;-60
2022/05/20 10:10:53;;;;;;;23.33;14.75;;;;;;;21.34;56.17;101610.84;5073368;28;20024;-60
2022/05/20 10:13:53;;;;;;;22.95;14.95;;;;;;;21.38;55.57;101608.13;5073081;28;20044;-60
2022/05/20 10:16:40;;;;;;;22.70;15.73;;;;;;;21.24;56.80;101596.47;5073058;28;20494;-61
2022/05/20 10:19:43;;;;;;;21.70;15.07;;;;;;;21.29;58.64;101584.97;5072983;28;20070;-60
2022/05/20 10:22:42;;;;;;;22.27;15.57;;;;;;;21.46;58.74;101561.25;5073038;28;20024;-60
2022/05/20 10:25:48;;;;;;;22.40;15.57;;;;;;;21.66;56.42;101553.75;5071372;28;20028;-59
2022/05/20 10:34:05;;;;;;;23.77;17.17;;;;;;;21.53;58.71;101530.50;5072497;28;20044;-60
2022/05/20 10:36:51;;;;;;;24.70;17.35;;;;;;;21.61;56.65;101535.13;5072494;28;20029;-60
2022/05/20 10:39:31;;;;;;;24.02;17.92;;;;;;;21.45;56.83;101531.47;5072507;28;20163;-60
2022/05/20 10:42:04;;;;;;;24.55;17.27;;;;;;;21.45;58.12;101515.41;5072351;28;20464;-60
2022/05/20 10:51:04;;;;;;;24.27;17.98;;;;;;;21.67;59.52;101482.19;5073018;28;20422;-60
2022/05/20 10:53:41;;;;;;;27.15;19.30;;;;;;;21.78;59.13;101471.94;5072963;28;20182;-60
2022/05/20 10:56:34;;;;;;;24.77;18.38;;;;;;;21.78;57.92;101457.88;5073227;28;20112;-61
2022/05/20 10:59:11;;;;;;;25.30;18.57;;;;;;;21.72;57.69;101448.09;5073015;28;20137;-60
2022/05/20 11:01:55;;;;;;;24.70;17.73;;;;;;;21.82;57.81;101438.25;5057089;28;20029;-61
2022/05/20 11:04:49;;;;;;;;;;;;;;;21.95;58.86;101420.00;5049398;28;20090;-60
2022/05/20 11:07:43;;;;;;;25.15;18.63;;;;;;;22.06;57.04;101400.50;5050322;28;19913;-60
2022/05/20 11:10:26;;;;;;;24.48;19.13;;;;;;;22.09;57.32;101387.69;5051163;28;20159;-61
2022/05/20 11:12:58;;;;;;;25.70;19.67;;;;;;;22.09;58.60;101371.59;5050865;28;20136;-60
2022/05/20 11:15:55;;;;;;;27.40;21.55;;;;;;;22.21;58.85;101364.16;5050379;28;20079;-61
2022/05/20 11:18:58;;;;;;;26.90;21.25;;;;;;;22.41;59.05;101359.31;5050747;28;20033;-61
2022/05/20 11:21:32;;;;;;;29.95;22.60;;;;;;;22.43;58.12;101352.09;5068924;28;20047;-61
2022/05/20 11:24:31;;;;;;;28.33;23.30;;;;;;;22.51;58.13;101355.06;5068916;28;20028;-61
2022/05/20 11:27:10;;;;;;;29.63;24.23;;;;;;;22.32;57.78;101330.53;5070269;28;20116;-61
2022/05/20 11:29:56;;;;;;;27.60;24.08;;;;;;;22.29;58.05;101335.72;5070745;28;20059;-60
2022/05/20 11:32:45;;;;;;;29.55;25.40;;;;;;;22.17;58.99;101329.44;5069768;28;20021;-62
2022/05/20 11:35:32;;;;;;;29.85;25.02;;;;;;;22.23;59.41;101322.34;5068592;28;20032;-61
2022/05/20 11:38:19;;;;;;;30.98;25.50;;;;;;;22.24;58.61;101319.13;5069080;28;20059;-61
2022/05/20 11:40:52;;;;;;;31.10;26.63;;;;;;;22.09;59.34;101322.91;5068844;28;20324;-60
2022/05/20 11:43:35;;;;;;;32.03;27.60;;;;;;;22.03;59.54;101304.66;5070547;28;20182;-60
2022/05/20 11:46:12;;;;;;;30.98;26.73;;;;;;;21.91;60.15;101314.94;5070267;28;20428;-60
2022/05/20 11:48:59;;;;;;;30.60;26.98;;;;;;;21.70;61.52;101317.31;5074244;28;20029;-60
2022/05/20 11:51:24;;;;;;;32.75;26.52;;;;;;;21.48;61.56;101322.47;5074487;28;20032;-61
2022/05/20 11:54:02;;;;;;;31.63;26.43;;;;;;;21.27;62.30;101318.00;5073501;28;20028;-60